sensor_id;sensor_type;location;lat;lon;timestamp;P1;durP1;ratioP1;P2;durP2;ratioP2
69459;SDS011;57182;55.712;37.612;2022-10-16T00:02:46;10.82;;;3.70;;
69459;SDS011;57182;55.712;37.612;2022-10-16T00:05:44;13.77;;;3.47;;
69459;SDS011;57182;55.712;37.612;2022-10-16T00:16:27;11.60;;;3.53;;
69459;SDS011;57182;55.712;37.612;2022-10-16T00:19:55;6.82;;;2.90;;
69459;SDS011;57182;55.712;37.612;2022-10-16T00:23:23;13.52;;;4.10;;
69459;SDS011;57182;55.712;37.612;2022-10-16T00:26:28;11.75;;;3.55;;
69459;SDS011;57182;55.712;37.612;2022-10-16T00:33:29;11.63;;;4.10;;
69459;SDS011;57182;55.712;37.612;2022-10-16T00:41:11;10.18;;;3.35;;
69459;SDS011;57182;55.712;37.612;2022-10-16T00:44:45;13.70;;;3.53;;
69459;SDS011;57182;55.712;37.612;2022-10-16T00:48:22;11.65;;;3.22;;
69459;SDS011;57182;55.712;37.612;2022-10-16T00:51:48;9.55;;;3.78;;
69459;SDS011;57182;55.712;37.612;2022-10-16T00:55:16;9.32;;;4.10;;
69459;SDS011;57182;55.712;37.612;2022-10-16T00:58:56;6.95;;;3.35;;
69459;SDS011;57182;55.712;37.612;2022-10-16T01:07:00;8.90;;;3.90;;
69459;SDS011;57182;55.712;37.612;2022-10-16T01:14:53;7.75;;;3.33;;
69459;SDS011;57182;55.712;37.612;2022-10-16T01:19:01;9.95;;;3.60;;
69459;SDS011;57182;55.712;37.612;2022-10-16T01:23:02;8.23;;;3.75;;
69459;SDS011;57182;55.712;37.612;2022-10-16T01:30:32;9.18;;;3.50;;
69459;SDS011;57182;55.712;37.612;2022-10-16T01:33:34;9.43;;;3.85;;
69459;SDS011;57182;55.712;37.612;2022-10-16T01:47:14;7.78;;;3.47;;
69459;SDS011;57182;55.712;37.612;2022-10-16T01:50:14;14.38;;;3.70;;
69459;SDS011;57182;55.712;37.612;2022-10-16T01:53:17;10.52;;;4.00;;
69459;SDS011;57182;55.712;37.612;2022-10-16T01:56:08;9.95;;;3.38;;
69459;SDS011;57182;55.712;37.612;2022-10-16T01:59:26;8.38;;;3.22;;
69459;SDS011;57182;55.712;37.612;2022-10-16T02:02:30;10.65;;;3.90;;
69459;SDS011;57182;55.712;37.612;2022-10-16T02:08:46;12.15;;;3.40;;
69459;SDS011;57182;55.712;37.612;2022-10-16T02:11:48;10.30;;;3.40;;
69459;SDS011;57182;55.712;37.612;2022-10-16T02:14:44;8.38;;;3.05;;
69459;SDS011;57182;55.712;37.612;2022-10-16T02:17:53;8.98;;;3.55;;
69459;SDS011;57182;55.712;37.612;2022-10-16T02:21:19;10.93;;;3.50;;
69459;SDS011;57182;55.712;37.612;2022-10-16T02:24:56;9.82;;;3.55;;
69459;SDS011;57182;55.712;37.612;2022-10-16T02:32:14;10.45;;;4.22;;
69459;SDS011;57182;55.712;37.612;2022-10-16T02:35:44;11.15;;;3.72;;
69459;SDS011;57182;55.712;37.612;2022-10-16T02:39:00;7.18;;;4.10;;
69459;SDS011;57182;55.712;37.612;2022-10-16T02:42:20;8.02;;;3.78;;
69459;SDS011;57182;55.712;37.612;2022-10-16T02:45:12;8.88;;;3.80;;
69459;SDS011;57182;55.712;37.612;2022-10-16T02:52:47;8.80;;;4.03;;
69459;SDS011;57182;55.712;37.612;2022-10-16T02:55:53;7.57;;;4.30;;
69459;SDS011;57182;55.712;37.612;2022-10-16T02:58:54;7.95;;;4.00;;
69459;SDS011;57182;55.712;37.612;2022-10-16T03:02:04;6.85;;;3.22;;
69459;SDS011;57182;55.712;37.612;2022-10-16T03:05:01;8.73;;;4.05;;
69459;SDS011;57182;55.712;37.612;2022-10-16T03:07:41;8.23;;;4.35;;
69459;SDS011;57182;55.712;37.612;2022-10-16T03:10:36;7.45;;;3.35;;
69459;SDS011;57182;55.712;37.612;2022-10-16T03:13:27;9.55;;;3.20;;
69459;SDS011;57182;55.712;37.612;2022-10-16T03:16:10;6.70;;;3.45;;
69459;SDS011;57182;55.712;37.612;2022-10-16T03:18:47;5.45;;;3.05;;
69459;SDS011;57182;55.712;37.612;2022-10-16T03:21:27;11.63;;;3.10;;
69459;SDS011;57182;55.712;37.612;2022-10-16T03:24:22;5.65;;;2.90;;
69459;SDS011;57182;55.712;37.612;2022-10-16T03:29:52;11.07;;;3.38;;
69459;SDS011;57182;55.712;37.612;2022-10-16T03:32:47;12.82;;;4.70;;
69459;SDS011;57182;55.712;37.612;2022-10-16T03:35:50;9.73;;;3.95;;
69459;SDS011;57182;55.712;37.612;2022-10-16T03:38:43;8.10;;;4.18;;
69459;SDS011;57182;55.712;37.612;2022-10-16T03:44:31;7.35;;;3.75;;
69459;SDS011;57182;55.712;37.612;2022-10-16T03:47:34;6.85;;;3.50;;
69459;SDS011;57182;55.712;37.612;2022-10-16T03:53:16;6.60;;;3.60;;
69459;SDS011;57182;55.712;37.612;2022-10-16T03:55:46;6.68;;;3.47;;
69459;SDS011;57182;55.712;37.612;2022-10-16T03:58:33;10.20;;;3.40;;
69459;SDS011;57182;55.712;37.612;2022-10-16T04:01:07;12.68;;;3.90;;
69459;SDS011;57182;55.712;37.612;2022-10-16T04:03:41;7.53;;;3.78;;
69459;SDS011;57182;55.712;37.612;2022-10-16T04:06:11;12.70;;;4.30;;
69459;SDS011;57182;55.712;37.612;2022-10-16T04:25:59;7.07;;;2.92;;
69459;SDS011;57182;55.712;37.612;2022-10-16T04:29:45;7.07;;;3.60;;
69459;SDS011;57182;55.712;37.612;2022-10-16T04:58:15;13.45;;;4.10;;
69459;SDS011;57182;55.712;37.612;2022-10-16T05:28:03;9.63;;;3.28;;
69459;SDS011;57182;55.712;37.612;2022-10-16T05:30:57;8.88;;;3.63;;
69459;SDS011;57182;55.712;37.612;2022-10-16T05:34:01;8.10;;;4.00;;
69459;SDS011;57182;55.712;37.612;2022-10-16T05:36:41;7.70;;;3.30;;
69459;SDS011;57182;55.712;37.612;2022-10-16T05:39:57;13.20;;;3.70;;
69459;SDS011;57182;55.712;37.612;2022-10-16T05:43:20;8.27;;;3.83;;
69459;SDS011;57182;55.712;37.612;2022-10-16T06:07:56;10.82;;;4.70;;
69459;SDS011;57182;55.712;37.612;2022-10-16T06:19:57;10.60;;;5.30;;
69459;SDS011;57182;55.712;37.612;2022-10-16T06:23:45;14.50;;;5.65;;
69459;SDS011;57182;55.712;37.612;2022-10-16T06:27:52;14.30;;;5.30;;
69459;SDS011;57182;55.712;37.612;2022-10-16T06:31:24;11.57;;;5.40;;
69459;SDS011;57182;55.712;37.612;2022-10-16T06:50:57;12.50;;;4.65;;
69459;SDS011;57182;55.712;37.612;2022-10-16T06:54:27;14.45;;;4.78;;
69459;SDS011;57182;55.712;37.612;2022-10-16T06:58:19;10.30;;;4.78;;
69459;SDS011;57182;55.712;37.612;2022-10-16T07:03:02;11.95;;;4.60;;
69459;SDS011;57182;55.712;37.612;2022-10-16T07:06:56;16.40;;;5.32;;
69459;SDS011;57182;55.712;37.612;2022-10-16T07:26:45;13.77;;;4.70;;
69459;SDS011;57182;55.712;37.612;2022-10-16T07:34:08;10.63;;;4.80;;
69459;SDS011;57182;55.712;37.612;2022-10-16T07:37:08;10.13;;;5.03;;
69459;SDS011;57182;55.712;37.612;2022-10-16T07:40:06;9.05;;;4.30;;
69459;SDS011;57182;55.712;37.612;2022-10-16T07:43:23;10.13;;;4.53;;
69459;SDS011;57182;55.712;37.612;2022-10-16T07:46:47;8.15;;;4.50;;
69459;SDS011;57182;55.712;37.612;2022-10-16T07:54:56;10.30;;;3.88;;
69459;SDS011;57182;55.712;37.612;2022-10-16T07:58:09;9.15;;;4.18;;
69459;SDS011;57182;55.712;37.612;2022-10-16T08:01:53;13.93;;;5.13;;
69459;SDS011;57182;55.712;37.612;2022-10-16T08:19:14;9.80;;;4.30;;
69459;SDS011;57182;55.712;37.612;2022-10-16T08:23:11;6.38;;;3.67;;
69459;SDS011;57182;55.712;37.612;2022-10-16T08:26:22;7.28;;;3.55;;
69459;SDS011;57182;55.712;37.612;2022-10-16T08:34:10;8.85;;;3.72;;
69459;SDS011;57182;55.712;37.612;2022-10-16T08:51:26;13.40;;;3.60;;
69459;SDS011;57182;55.712;37.612;2022-10-16T08:55:04;7.82;;;2.30;;
69459;SDS011;57182;55.712;37.612;2022-10-16T08:58:53;8.27;;;2.78;;
69459;SDS011;57182;55.712;37.612;2022-10-16T09:01:50;8.00;;;3.05;;
69459;SDS011;57182;55.712;37.612;2022-10-16T09:26:46;6.78;;;3.00;;
69459;SDS011;57182;55.712;37.612;2022-10-16T09:29:39;8.15;;;3.03;;
69459;SDS011;57182;55.712;37.612;2022-10-16T09:32:44;6.03;;;2.50;;
69459;SDS011;57182;55.712;37.612;2022-10-16T09:36:02;6.38;;;2.58;;
69459;SDS011;57182;55.712;37.612;2022-10-16T09:39:04;8.57;;;3.13;;
69459;SDS011;57182;55.712;37.612;2022-10-16T09:46:39;9.13;;;2.50;;
69459;SDS011;57182;55.712;37.612;2022-10-16T09:49:58;7.07;;;3.08;;
69459;SDS011;57182;55.712;37.612;2022-10-16T09:53:39;7.18;;;2.45;;
69459;SDS011;57182;55.712;37.612;2022-10-16T09:57:06;10.38;;;2.38;;
69459;SDS011;57182;55.712;37.612;2022-10-16T10:00:27;8.73;;;2.15;;
69459;SDS011;57182;55.712;37.612;2022-10-16T10:03:42;9.38;;;2.22;;
69459;SDS011;57182;55.712;37.612;2022-10-16T10:06:26;5.57;;;2.78;;
69459;SDS011;57182;55.712;37.612;2022-10-16T10:12:25;4.05;;;2.35;;
69459;SDS011;57182;55.712;37.612;2022-10-16T10:18:22;6.38;;;2.33;;
69459;SDS011;57182;55.712;37.612;2022-10-16T10:21:18;4.25;;;2.00;;
69459;SDS011;57182;55.712;37.612;2022-10-16T10:24:12;6.57;;;2.63;;
69459;SDS011;57182;55.712;37.612;2022-10-16T10:27:10;6.38;;;2.58;;
69459;SDS011;57182;55.712;37.612;2022-10-16T10:45:27;7.45;;;2.90;;
69459;SDS011;57182;55.712;37.612;2022-10-16T10:49:25;5.13;;;2.13;;
69459;SDS011;57182;55.712;37.612;2022-10-16T10:56:39;8.75;;;2.13;;
69459;SDS011;57182;55.712;37.612;2022-10-16T11:00:31;7.88;;;2.33;;
69459;SDS011;57182;55.712;37.612;2022-10-16T11:13:10;16.67;;;5.93;;
69459;SDS011;57182;55.712;37.612;2022-10-16T11:17:17;8.43;;;3.08;;
69459;SDS011;57182;55.712;37.612;2022-10-16T11:21:11;7.53;;;2.65;;
69459;SDS011;57182;55.712;37.612;2022-10-16T11:46:11;6.68;;;2.45;;
69459;SDS011;57182;55.712;37.612;2022-10-16T11:49:52;6.72;;;2.92;;
69459;SDS011;57182;55.712;37.612;2022-10-16T11:53:42;5.03;;;2.83;;
69459;SDS011;57182;55.712;37.612;2022-10-16T11:57:47;6.97;;;2.65;;
69459;SDS011;57182;55.712;37.612;2022-10-16T12:09:05;15.77;;;4.78;;
69459;SDS011;57182;55.712;37.612;2022-10-16T12:12:23;5.80;;;2.38;;
69459;SDS011;57182;55.712;37.612;2022-10-16T12:20:12;10.48;;;3.65;;
69459;SDS011;57182;55.712;37.612;2022-10-16T12:24:01;9.65;;;2.58;;
69459;SDS011;57182;55.712;37.612;2022-10-16T12:27:06;14.68;;;3.13;;
69459;SDS011;57182;55.712;37.612;2022-10-16T12:30:57;10.70;;;3.95;;
69459;SDS011;57182;55.712;37.612;2022-10-16T12:37:37;9.65;;;3.72;;
69459;SDS011;57182;55.712;37.612;2022-10-16T12:41:23;4.53;;;2.20;;
69459;SDS011;57182;55.712;37.612;2022-10-16T12:44:54;6.63;;;3.10;;
69459;SDS011;57182;55.712;37.612;2022-10-16T12:52:23;4.90;;;2.47;;
69459;SDS011;57182;55.712;37.612;2022-10-16T12:55:18;5.00;;;2.30;;
69459;SDS011;57182;55.712;37.612;2022-10-16T13:11:48;4.65;;;2.30;;
69459;SDS011;57182;55.712;37.612;2022-10-16T13:22:10;6.75;;;2.58;;
69459;SDS011;57182;55.712;37.612;2022-10-16T13:29:36;5.90;;;2.70;;
69459;SDS011;57182;55.712;37.612;2022-10-16T15:24:58;10.73;;;3.30;;
69459;SDS011;57182;55.712;37.612;2022-10-16T15:28:04;8.73;;;3.30;;
69459;SDS011;57182;55.712;37.612;2022-10-16T15:34:44;7.35;;;2.97;;
69459;SDS011;57182;55.712;37.612;2022-10-16T15:37:23;9.85;;;3.40;;
69459;SDS011;57182;55.712;37.612;2022-10-16T15:40:27;10.80;;;3.78;;
69459;SDS011;57182;55.712;37.612;2022-10-16T15:43:36;8.48;;;3.13;;
69459;SDS011;57182;55.712;37.612;2022-10-16T15:46:19;7.82;;;3.10;;
69459;SDS011;57182;55.712;37.612;2022-10-16T15:49:33;11.23;;;3.58;;
69459;SDS011;57182;55.712;37.612;2022-10-16T15:53:31;8.80;;;3.35;;
69459;SDS011;57182;55.712;37.612;2022-10-16T15:57:37;7.40;;;3.40;;
69459;SDS011;57182;55.712;37.612;2022-10-16T16:00:44;14.77;;;4.28;;
69459;SDS011;57182;55.712;37.612;2022-10-16T16:03:55;15.52;;;3.45;;
69459;SDS011;57182;55.712;37.612;2022-10-16T16:11:46;7.28;;;3.20;;
69459;SDS011;57182;55.712;37.612;2022-10-16T16:14:57;12.10;;;3.70;;
69459;SDS011;57182;55.712;37.612;2022-10-16T16:18:40;8.65;;;3.30;;
69459;SDS011;57182;55.712;37.612;2022-10-16T16:27:06;12.90;;;3.83;;
69459;SDS011;57182;55.712;37.612;2022-10-16T16:31:20;11.20;;;3.63;;
69459;SDS011;57182;55.712;37.612;2022-10-16T16:38:38;16.02;;;3.30;;
69459;SDS011;57182;55.712;37.612;2022-10-16T16:41:42;8.70;;;3.75;;
69459;SDS011;57182;55.712;37.612;2022-10-16T16:48:45;8.07;;;2.97;;
69459;SDS011;57182;55.712;37.612;2022-10-16T16:52:14;9.70;;;3.40;;
69459;SDS011;57182;55.712;37.612;2022-10-16T16:56:00;9.70;;;3.30;;
69459;SDS011;57182;55.712;37.612;2022-10-16T16:59:30;11.02;;;3.17;;
69459;SDS011;57182;55.712;37.612;2022-10-16T17:02:58;9.73;;;3.40;;
69459;SDS011;57182;55.712;37.612;2022-10-16T17:06:10;6.72;;;3.10;;
69459;SDS011;57182;55.712;37.612;2022-10-16T17:10:08;8.40;;;3.20;;
69459;SDS011;57182;55.712;37.612;2022-10-16T17:13:44;9.77;;;3.20;;
69459;SDS011;57182;55.712;37.612;2022-10-16T17:17:06;5.80;;;3.17;;
69459;SDS011;57182;55.712;37.612;2022-10-16T17:20:48;7.90;;;3.53;;
69459;SDS011;57182;55.712;37.612;2022-10-16T17:24:38;6.35;;;2.95;;
69459;SDS011;57182;55.712;37.612;2022-10-16T17:28:11;5.82;;;2.20;;
69459;SDS011;57182;55.712;37.612;2022-10-16T17:36:24;6.88;;;2.72;;
69459;SDS011;57182;55.712;37.612;2022-10-16T17:47:30;5.32;;;2.15;;
69459;SDS011;57182;55.712;37.612;2022-10-16T17:50:30;7.35;;;2.88;;
69459;SDS011;57182;55.712;37.612;2022-10-16T17:53:48;7.80;;;2.50;;
69459;SDS011;57182;55.712;37.612;2022-10-16T17:57:44;6.70;;;2.70;;
69459;SDS011;57182;55.712;37.612;2022-10-16T18:01:27;8.35;;;2.90;;
69459;SDS011;57182;55.712;37.612;2022-10-16T18:08:22;6.82;;;2.95;;
69459;SDS011;57182;55.712;37.612;2022-10-16T18:12:15;6.32;;;3.13;;
69459;SDS011;57182;55.712;37.612;2022-10-16T18:15:09;5.10;;;2.60;;
69459;SDS011;57182;55.712;37.612;2022-10-16T18:18:02;5.20;;;2.90;;
69459;SDS011;57182;55.712;37.612;2022-10-16T18:24:53;5.78;;;2.35;;
69459;SDS011;57182;55.712;37.612;2022-10-16T18:27:38;4.53;;;2.78;;
69459;SDS011;57182;55.712;37.612;2022-10-16T18:30:41;5.70;;;2.85;;
69459;SDS011;57182;55.712;37.612;2022-10-16T18:33:33;6.35;;;2.35;;
69459;SDS011;57182;55.712;37.612;2022-10-16T18:36:48;7.65;;;2.80;;
69459;SDS011;57182;55.712;37.612;2022-10-16T18:40:21;5.47;;;2.60;;
69459;SDS011;57182;55.712;37.612;2022-10-16T18:43:53;4.97;;;2.33;;
69459;SDS011;57182;55.712;37.612;2022-10-16T18:46:57;4.95;;;2.80;;
69459;SDS011;57182;55.712;37.612;2022-10-16T18:50:45;8.18;;;3.05;;
69459;SDS011;57182;55.712;37.612;2022-10-16T18:53:28;6.95;;;2.92;;
69459;SDS011;57182;55.712;37.612;2022-10-16T18:56:01;4.97;;;2.38;;
69459;SDS011;57182;55.712;37.612;2022-10-16T18:58:48;5.55;;;2.85;;
69459;SDS011;57182;55.712;37.612;2022-10-16T19:01:23;6.10;;;2.72;;
69459;SDS011;57182;55.712;37.612;2022-10-16T19:04:13;6.07;;;2.90;;
69459;SDS011;57182;55.712;37.612;2022-10-16T19:06:46;9.90;;;3.22;;
69459;SDS011;57182;55.712;37.612;2022-10-16T19:26:10;12.88;;;2.95;;
69459;SDS011;57182;55.712;37.612;2022-10-16T19:38:17;6.63;;;2.80;;
69459;SDS011;57182;55.712;37.612;2022-10-16T19:45:47;5.85;;;3.17;;
69459;SDS011;57182;55.712;37.612;2022-10-16T19:49:35;4.45;;;2.42;;
69459;SDS011;57182;55.712;37.612;2022-10-16T19:59:58;7.22;;;2.78;;
69459;SDS011;57182;55.712;37.612;2022-10-16T20:07:31;6.97;;;2.35;;
69459;SDS011;57182;55.712;37.612;2022-10-16T20:13:08;10.15;;;2.90;;
69459;SDS011;57182;55.712;37.612;2022-10-16T20:16:25;3.70;;;2.33;;
69459;SDS011;57182;55.712;37.612;2022-10-16T20:20:03;3.17;;;2.20;;
69459;SDS011;57182;55.712;37.612;2022-10-16T20:24:08;6.20;;;2.60;;
69459;SDS011;57182;55.712;37.612;2022-10-16T20:27:07;7.00;;;2.55;;
69459;SDS011;57182;55.712;37.612;2022-10-16T20:31:16;5.28;;;2.53;;
69459;SDS011;57182;55.712;37.612;2022-10-16T20:34:31;6.72;;;2.33;;
69459;SDS011;57182;55.712;37.612;2022-10-16T20:38:17;4.50;;;2.05;;
69459;SDS011;57182;55.712;37.612;2022-10-16T20:41:49;4.35;;;2.45;;
69459;SDS011;57182;55.712;37.612;2022-10-16T20:45:14;4.72;;;2.38;;
69459;SDS011;57182;55.712;37.612;2022-10-16T20:56:44;5.90;;;3.25;;
69459;SDS011;57182;55.712;37.612;2022-10-16T21:04:45;9.32;;;2.72;;
69459;SDS011;57182;55.712;37.612;2022-10-16T21:08:55;6.05;;;2.53;;
69459;SDS011;57182;55.712;37.612;2022-10-16T21:16:29;5.45;;;2.60;;
69459;SDS011;57182;55.712;37.612;2022-10-16T21:19:44;6.00;;;2.90;;
69459;SDS011;57182;55.712;37.612;2022-10-16T21:22:50;4.10;;;2.45;;
69459;SDS011;57182;55.712;37.612;2022-10-16T21:26:15;4.90;;;3.03;;
69459;SDS011;57182;55.712;37.612;2022-10-16T21:29:48;7.55;;;2.75;;
69459;SDS011;57182;55.712;37.612;2022-10-16T21:33:40;12.23;;;3.15;;
69459;SDS011;57182;55.712;37.612;2022-10-16T21:37:05;6.57;;;3.05;;
69459;SDS011;57182;55.712;37.612;2022-10-16T21:44:11;2.78;;;1.85;;
69459;SDS011;57182;55.712;37.612;2022-10-16T21:47:36;5.95;;;2.90;;
69459;SDS011;57182;55.712;37.612;2022-10-16T21:54:31;4.35;;;2.15;;
69459;SDS011;57182;55.712;37.612;2022-10-16T21:57:34;5.85;;;2.95;;
69459;SDS011;57182;55.712;37.612;2022-10-16T22:01:08;7.45;;;2.47;;
69459;SDS011;57182;55.712;37.612;2022-10-16T22:04:15;6.95;;;3.03;;
69459;SDS011;57182;55.712;37.612;2022-10-16T22:07:08;2.85;;;1.83;;
69459;SDS011;57182;55.712;37.612;2022-10-16T22:10:17;5.93;;;2.78;;
69459;SDS011;57182;55.712;37.612;2022-10-16T22:13:35;4.43;;;2.63;;
69459;SDS011;57182;55.712;37.612;2022-10-16T22:16:31;6.75;;;2.42;;
69459;SDS011;57182;55.712;37.612;2022-10-16T22:19:45;9.20;;;2.97;;
69459;SDS011;57182;55.712;37.612;2022-10-16T22:23:03;7.13;;;2.97;;
69459;SDS011;57182;55.712;37.612;2022-10-16T22:26:05;5.40;;;2.58;;
69459;SDS011;57182;55.712;37.612;2022-10-16T22:34:23;6.57;;;3.17;;
69459;SDS011;57182;55.712;37.612;2022-10-16T22:37:19;8.95;;;4.05;;
69459;SDS011;57182;55.712;37.612;2022-10-16T22:40:49;7.20;;;3.17;;
69459;SDS011;57182;55.712;37.612;2022-10-16T22:43:48;3.92;;;2.10;;
69459;SDS011;57182;55.712;37.612;2022-10-16T22:47:32;5.88;;;3.65;;
69459;SDS011;57182;55.712;37.612;2022-10-16T22:51:00;5.55;;;2.90;;
69459;SDS011;57182;55.712;37.612;2022-10-16T22:54:40;5.90;;;3.17;;
69459;SDS011;57182;55.712;37.612;2022-10-16T22:58:10;7.00;;;2.70;;
69459;SDS011;57182;55.712;37.612;2022-10-16T23:01:25;7.88;;;3.33;;
69459;SDS011;57182;55.712;37.612;2022-10-16T23:05:36;7.30;;;3.10;;
69459;SDS011;57182;55.712;37.612;2022-10-16T23:09:08;11.52;;;3.33;;
69459;SDS011;57182;55.712;37.612;2022-10-16T23:12:26;6.38;;;3.72;;
69459;SDS011;57182;55.712;37.612;2022-10-16T23:15:39;7.10;;;2.63;;
69459;SDS011;57182;55.712;37.612;2022-10-16T23:19:17;7.68;;;3.55;;
69459;SDS011;57182;55.712;37.612;2022-10-16T23:22:57;6.80;;;3.03;;
69459;SDS011;57182;55.712;37.612;2022-10-16T23:26:13;6.90;;;3.30;;
69459;SDS011;57182;55.712;37.612;2022-10-16T23:29:42;10.90;;;3.20;;
69459;SDS011;57182;55.712;37.612;2022-10-16T23:33:07;6.10;;;3.30;;
69459;SDS011;57182;55.712;37.612;2022-10-16T23:37:07;5.93;;;3.10;;
69459;SDS011;57182;55.712;37.612;2022-10-16T23:44:32;5.93;;;3.10;;
69459;SDS011;57182;55.712;37.612;2022-10-16T23:50:48;9.23;;;3.50;;
69459;SDS011;57182;55.712;37.612;2022-10-16T23:54:45;5.22;;;3.03;;
69459;SDS011;57182;55.712;37.612;2022-10-16T23:57:54;7.18;;;2.88;;
